Morales, Texas
Current Conditions -  °F | °C
As of 10:51 PM on Monday 22 Dec 2014 (Local Time) from KVCT Reporting Station
Moderate Fog Moderate Fog  
Wind Chill: 56°   Ceiling: 300
Heat Index: 56°   Visibility: 0.25mi
Dew Point: 55°   Wind: 5mph
Humidity: 97%   Direction: 60°ENE
Pressure: 29.67"   Gusts: NA
Location:  29.0129°N, 96.6883°W
Report Text: KVCT 230451Z AUTO 06004KT 1/4SM FG VV003 13/13 A2967 RMK AO2 SLP044 T01330128
Loading
Personal Weather Stations






























Interactive Weather Map New forecast layout! Learn more

10-Day Weather Forecast

Advertisements
Track Severe Weather on mobile